sensor_id;sensor_type;location;lat;lon;timestamp;P1;durP1;ratioP1;P2;durP2;ratioP2
15271;SDS011;7737;51.578;7.268;2022-10-31T00:01:20;10.27;;;8.18;;
15271;SDS011;7737;51.578;7.268;2022-10-31T00:03:48;14.50;;;8.60;;
15271;SDS011;7737;51.578;7.268;2022-10-31T00:06:15;14.25;;;8.75;;
15271;SDS011;7737;51.578;7.268;2022-10-31T00:08:43;11.52;;;8.55;;
15271;SDS011;7737;51.578;7.268;2022-10-31T00:11:09;15.10;;;9.52;;
15271;SDS011;7737;51.578;7.268;2022-10-31T00:13:36;12.45;;;8.38;;
15271;SDS011;7737;51.578;7.268;2022-10-31T00:16:03;12.57;;;8.35;;
15271;SDS011;7737;51.578;7.268;2022-10-31T00:18:31;15.13;;;8.77;;
15271;SDS011;7737;51.578;7.268;2022-10-31T00:20:58;16.50;;;9.55;;
15271;SDS011;7737;51.578;7.268;2022-10-31T00:23:25;12.65;;;8.57;;
15271;SDS011;7737;51.578;7.268;2022-10-31T00:25:52;9.48;;;8.18;;
15271;SDS011;7737;51.578;7.268;2022-10-31T00:28:18;13.68;;;8.60;;
15271;SDS011;7737;51.578;7.268;2022-10-31T00:30:45;13.15;;;8.50;;
15271;SDS011;7737;51.578;7.268;2022-10-31T00:33:11;16.27;;;8.50;;
15271;SDS011;7737;51.578;7.268;2022-10-31T00:35:39;15.57;;;8.18;;
15271;SDS011;7737;51.578;7.268;2022-10-31T00:38:05;12.65;;;8.10;;
15271;SDS011;7737;51.578;7.268;2022-10-31T00:40:32;14.40;;;9.13;;
15271;SDS011;7737;51.578;7.268;2022-10-31T00:42:58;15.07;;;8.93;;
15271;SDS011;7737;51.578;7.268;2022-10-31T00:45:25;14.23;;;9.20;;
15271;SDS011;7737;51.578;7.268;2022-10-31T00:47:51;14.35;;;8.20;;
15271;SDS011;7737;51.578;7.268;2022-10-31T00:50:18;12.27;;;8.57;;
15271;SDS011;7737;51.578;7.268;2022-10-31T00:52:46;12.05;;;8.25;;
15271;SDS011;7737;51.578;7.268;2022-10-31T00:55:12;11.85;;;7.82;;
15271;SDS011;7737;51.578;7.268;2022-10-31T00:57:39;13.43;;;8.40;;
15271;SDS011;7737;51.578;7.268;2022-10-31T01:00:05;12.68;;;8.00;;
15271;SDS011;7737;51.578;7.268;2022-10-31T01:02:33;12.18;;;8.82;;
15271;SDS011;7737;51.578;7.268;2022-10-31T01:04:59;13.05;;;8.35;;
15271;SDS011;7737;51.578;7.268;2022-10-31T01:07:26;11.75;;;7.97;;
15271;SDS011;7737;51.578;7.268;2022-10-31T01:09:54;12.98;;;8.20;;
15271;SDS011;7737;51.578;7.268;2022-10-31T01:12:20;12.60;;;8.40;;
15271;SDS011;7737;51.578;7.268;2022-10-31T01:14:47;12.63;;;8.48;;
15271;SDS011;7737;51.578;7.268;2022-10-31T01:17:13;14.13;;;8.52;;
15271;SDS011;7737;51.578;7.268;2022-10-31T01:19:40;13.25;;;8.95;;
15271;SDS011;7737;51.578;7.268;2022-10-31T01:22:06;14.70;;;8.40;;
15271;SDS011;7737;51.578;7.268;2022-10-31T01:24:33;15.02;;;8.38;;
15271;SDS011;7737;51.578;7.268;2022-10-31T01:27:01;11.57;;;7.88;;
15271;SDS011;7737;51.578;7.268;2022-10-31T01:29:28;12.50;;;8.23;;
15271;SDS011;7737;51.578;7.268;2022-10-31T01:31:55;13.13;;;8.30;;
15271;SDS011;7737;51.578;7.268;2022-10-31T01:34:21;12.80;;;7.95;;
15271;SDS011;7737;51.578;7.268;2022-10-31T01:36:48;13.23;;;8.23;;
15271;SDS011;7737;51.578;7.268;2022-10-31T01:39:16;12.15;;;7.85;;
15271;SDS011;7737;51.578;7.268;2022-10-31T01:41:43;11.52;;;7.80;;
15271;SDS011;7737;51.578;7.268;2022-10-31T01:47:19;11.98;;;8.32;;
15271;SDS011;7737;51.578;7.268;2022-10-31T01:49:51;12.00;;;8.80;;
15271;SDS011;7737;51.578;7.268;2022-10-31T01:52:24;13.65;;;8.65;;
15271;SDS011;7737;51.578;7.268;2022-10-31T01:54:53;13.95;;;9.10;;
15271;SDS011;7737;51.578;7.268;2022-10-31T01:57:24;13.63;;;9.23;;
15271;SDS011;7737;51.578;7.268;2022-10-31T01:59:53;10.52;;;8.82;;
15271;SDS011;7737;51.578;7.268;2022-10-31T02:02:25;14.07;;;9.43;;
15271;SDS011;7737;51.578;7.268;2022-10-31T02:04:53;15.10;;;9.25;;
15271;SDS011;7737;51.578;7.268;2022-10-31T02:07:22;16.10;;;9.02;;
15271;SDS011;7737;51.578;7.268;2022-10-31T02:09:53;16.08;;;10.02;;
15271;SDS011;7737;51.578;7.268;2022-10-31T02:12:22;17.15;;;10.75;;
15271;SDS011;7737;51.578;7.268;2022-10-31T02:14:49;13.32;;;9.05;;
15271;SDS011;7737;51.578;7.268;2022-10-31T02:17:15;15.98;;;10.18;;
15271;SDS011;7737;51.578;7.268;2022-10-31T02:19:45;14.02;;;8.80;;
15271;SDS011;7737;51.578;7.268;2022-10-31T02:22:22;11.43;;;8.40;;
15271;SDS011;7737;51.578;7.268;2022-10-31T02:24:56;11.38;;;8.55;;
15271;SDS011;7737;51.578;7.268;2022-10-31T02:27:40;13.45;;;8.30;;
15271;SDS011;7737;51.578;7.268;2022-10-31T02:30:18;12.02;;;9.40;;
15271;SDS011;7737;51.578;7.268;2022-10-31T02:32:52;15.15;;;8.18;;
15271;SDS011;7737;51.578;7.268;2022-10-31T02:35:28;13.50;;;9.02;;
15271;SDS011;7737;51.578;7.268;2022-10-31T02:38:05;15.27;;;9.00;;
15271;SDS011;7737;51.578;7.268;2022-10-31T02:40:43;15.10;;;8.98;;
15271;SDS011;7737;51.578;7.268;2022-10-31T02:43:17;14.15;;;9.18;;
15271;SDS011;7737;51.578;7.268;2022-10-31T02:45:48;13.90;;;8.77;;
15271;SDS011;7737;51.578;7.268;2022-10-31T02:48:26;14.40;;;9.07;;
15271;SDS011;7737;51.578;7.268;2022-10-31T02:50:55;14.48;;;9.35;;
15271;SDS011;7737;51.578;7.268;2022-10-31T02:53:24;13.23;;;9.32;;
15271;SDS011;7737;51.578;7.268;2022-10-31T02:55:58;10.93;;;9.10;;
15271;SDS011;7737;51.578;7.268;2022-10-31T02:58:28;16.27;;;10.05;;
15271;SDS011;7737;51.578;7.268;2022-10-31T03:03:59;13.50;;;9.75;;
15271;SDS011;7737;51.578;7.268;2022-10-31T03:06:39;13.98;;;9.35;;
15271;SDS011;7737;51.578;7.268;2022-10-31T03:09:12;12.77;;;9.20;;
15271;SDS011;7737;51.578;7.268;2022-10-31T03:11:50;16.48;;;11.27;;
15271;SDS011;7737;51.578;7.268;2022-10-31T03:14:24;14.65;;;9.85;;
15271;SDS011;7737;51.578;7.268;2022-10-31T03:16:57;13.43;;;9.23;;
15271;SDS011;7737;51.578;7.268;2022-10-31T03:19:29;13.30;;;9.18;;
15271;SDS011;7737;51.578;7.268;2022-10-31T03:21:59;14.65;;;10.13;;
15271;SDS011;7737;51.578;7.268;2022-10-31T03:24:30;14.93;;;10.52;;
15271;SDS011;7737;51.578;7.268;2022-10-31T03:27:00;14.02;;;10.38;;
15271;SDS011;7737;51.578;7.268;2022-10-31T03:29:28;14.45;;;9.35;;
15271;SDS011;7737;51.578;7.268;2022-10-31T03:32:00;18.35;;;10.75;;
15271;SDS011;7737;51.578;7.268;2022-10-31T03:34:30;17.92;;;11.57;;
15271;SDS011;7737;51.578;7.268;2022-10-31T03:36:59;19.75;;;11.35;;
15271;SDS011;7737;51.578;7.268;2022-10-31T03:39:29;16.95;;;11.25;;
15271;SDS011;7737;51.578;7.268;2022-10-31T03:41:59;15.50;;;10.45;;
15271;SDS011;7737;51.578;7.268;2022-10-31T03:44:28;17.25;;;10.73;;
15271;SDS011;7737;51.578;7.268;2022-10-31T03:46:57;17.55;;;10.98;;
15271;SDS011;7737;51.578;7.268;2022-10-31T03:49:23;17.25;;;10.75;;
15271;SDS011;7737;51.578;7.268;2022-10-31T03:51:54;16.38;;;10.70;;
15271;SDS011;7737;51.578;7.268;2022-10-31T03:54:25;16.27;;;11.02;;
15271;SDS011;7737;51.578;7.268;2022-10-31T03:56:56;14.82;;;10.38;;
15271;SDS011;7737;51.578;7.268;2022-10-31T03:59:31;15.70;;;10.02;;
15271;SDS011;7737;51.578;7.268;2022-10-31T04:02:01;14.27;;;9.88;;
15271;SDS011;7737;51.578;7.268;2022-10-31T04:04:32;15.93;;;10.10;;
15271;SDS011;7737;51.578;7.268;2022-10-31T04:07:01;15.02;;;10.45;;
15271;SDS011;7737;51.578;7.268;2022-10-31T04:09:31;15.05;;;10.00;;
15271;SDS011;7737;51.578;7.268;2022-10-31T04:12:01;12.10;;;9.48;;
15271;SDS011;7737;51.578;7.268;2022-10-31T04:14:31;15.13;;;9.65;;
15271;SDS011;7737;51.578;7.268;2022-10-31T04:16:59;12.10;;;9.98;;
15271;SDS011;7737;51.578;7.268;2022-10-31T04:19:28;14.57;;;9.68;;
15271;SDS011;7737;51.578;7.268;2022-10-31T04:21:54;14.27;;;9.60;;
15271;SDS011;7737;51.578;7.268;2022-10-31T04:24:22;12.82;;;9.35;;
15271;SDS011;7737;51.578;7.268;2022-10-31T04:26:49;13.68;;;9.95;;
15271;SDS011;7737;51.578;7.268;2022-10-31T04:29:15;12.55;;;9.07;;
15271;SDS011;7737;51.578;7.268;2022-10-31T04:31:42;11.25;;;9.30;;
15271;SDS011;7737;51.578;7.268;2022-10-31T04:34:08;12.77;;;9.43;;
15271;SDS011;7737;51.578;7.268;2022-10-31T04:36:35;15.02;;;10.18;;
15271;SDS011;7737;51.578;7.268;2022-10-31T04:39:01;12.38;;;9.70;;
15271;SDS011;7737;51.578;7.268;2022-10-31T04:41:29;12.32;;;8.18;;
15271;SDS011;7737;51.578;7.268;2022-10-31T04:43:56;10.57;;;7.60;;
15271;SDS011;7737;51.578;7.268;2022-10-31T04:46:22;10.10;;;7.45;;
15271;SDS011;7737;51.578;7.268;2022-10-31T04:48:49;10.80;;;7.70;;
15271;SDS011;7737;51.578;7.268;2022-10-31T04:51:15;11.20;;;8.32;;
15271;SDS011;7737;51.578;7.268;2022-10-31T04:53:42;12.75;;;8.75;;
15271;SDS011;7737;51.578;7.268;2022-10-31T04:56:08;12.45;;;9.38;;
15271;SDS011;7737;51.578;7.268;2022-10-31T04:58:36;16.08;;;10.70;;
15271;SDS011;7737;51.578;7.268;2022-10-31T05:01:02;15.00;;;11.45;;
15271;SDS011;7737;51.578;7.268;2022-10-31T05:03:29;14.23;;;10.95;;
15271;SDS011;7737;51.578;7.268;2022-10-31T05:05:56;14.05;;;10.15;;
15271;SDS011;7737;51.578;7.268;2022-10-31T05:08:22;15.68;;;9.88;;
15271;SDS011;7737;51.578;7.268;2022-10-31T05:10:49;13.65;;;9.57;;
15271;SDS011;7737;51.578;7.268;2022-10-31T05:13:15;15.63;;;10.40;;
15271;SDS011;7737;51.578;7.268;2022-10-31T05:15:43;15.52;;;9.75;;
15271;SDS011;7737;51.578;7.268;2022-10-31T05:18:10;11.05;;;9.85;;
15271;SDS011;7737;51.578;7.268;2022-10-31T05:20:36;11.50;;;9.63;;
15271;SDS011;7737;51.578;7.268;2022-10-31T05:23:03;11.57;;;10.15;;
15271;SDS011;7737;51.578;7.268;2022-10-31T05:25:29;16.10;;;10.35;;
15271;SDS011;7737;51.578;7.268;2022-10-31T05:27:56;11.38;;;9.32;;
15271;SDS011;7737;51.578;7.268;2022-10-31T05:30:23;13.13;;;10.35;;
15271;SDS011;7737;51.578;7.268;2022-10-31T05:32:53;13.68;;;9.70;;
15271;SDS011;7737;51.578;7.268;2022-10-31T05:35:20;12.65;;;10.23;;
15271;SDS011;7737;51.578;7.268;2022-10-31T05:37:48;12.05;;;10.02;;
15271;SDS011;7737;51.578;7.268;2022-10-31T05:40:15;12.43;;;10.40;;
15271;SDS011;7737;51.578;7.268;2022-10-31T05:42:43;13.27;;;10.05;;
15271;SDS011;7737;51.578;7.268;2022-10-31T05:45:10;11.00;;;8.85;;
15271;SDS011;7737;51.578;7.268;2022-10-31T05:47:38;12.27;;;10.50;;
15271;SDS011;7737;51.578;7.268;2022-10-31T05:50:07;14.05;;;10.60;;
15271;SDS011;7737;51.578;7.268;2022-10-31T05:52:35;10.02;;;8.90;;
15271;SDS011;7737;51.578;7.268;2022-10-31T05:55:02;10.75;;;9.30;;
15271;SDS011;7737;51.578;7.268;2022-10-31T05:57:29;12.85;;;9.27;;
15271;SDS011;7737;51.578;7.268;2022-10-31T05:59:57;14.10;;;10.25;;
15271;SDS011;7737;51.578;7.268;2022-10-31T06:02:24;12.93;;;10.15;;
15271;SDS011;7737;51.578;7.268;2022-10-31T06:04:51;28.58;;;9.90;;
15271;SDS011;7737;51.578;7.268;2022-10-31T06:07:19;11.00;;;9.90;;
15271;SDS011;7737;51.578;7.268;2022-10-31T06:09:46;13.27;;;10.07;;
15271;SDS011;7737;51.578;7.268;2022-10-31T06:12:12;9.93;;;8.95;;
15271;SDS011;7737;51.578;7.268;2022-10-31T06:14:39;11.77;;;9.23;;
15271;SDS011;7737;51.578;7.268;2022-10-31T06:17:05;9.63;;;8.45;;
15271;SDS011;7737;51.578;7.268;2022-10-31T06:19:32;10.38;;;9.20;;
15271;SDS011;7737;51.578;7.268;2022-10-31T06:21:58;10.02;;;9.02;;
15271;SDS011;7737;51.578;7.268;2022-10-31T06:24:26;12.48;;;10.55;;
15271;SDS011;7737;51.578;7.268;2022-10-31T06:26:53;14.52;;;11.02;;
15271;SDS011;7737;51.578;7.268;2022-10-31T06:29:19;16.20;;;11.15;;
15271;SDS011;7737;51.578;7.268;2022-10-31T06:31:46;18.15;;;13.93;;
15271;SDS011;7737;51.578;7.268;2022-10-31T06:34:12;17.63;;;10.68;;
15271;SDS011;7737;51.578;7.268;2022-10-31T06:36:39;15.65;;;11.63;;
15271;SDS011;7737;51.578;7.268;2022-10-31T06:39:05;15.85;;;12.30;;
15271;SDS011;7737;51.578;7.268;2022-10-31T06:41:33;16.05;;;12.43;;
15271;SDS011;7737;51.578;7.268;2022-10-31T06:44:01;17.50;;;11.45;;
15271;SDS011;7737;51.578;7.268;2022-10-31T06:46:28;15.55;;;11.15;;
15271;SDS011;7737;51.578;7.268;2022-10-31T06:48:54;13.52;;;9.95;;
15271;SDS011;7737;51.578;7.268;2022-10-31T06:51:21;12.75;;;10.63;;
15271;SDS011;7737;51.578;7.268;2022-10-31T06:53:47;13.63;;;10.77;;
15271;SDS011;7737;51.578;7.268;2022-10-31T06:56:14;14.82;;;10.93;;
15271;SDS011;7737;51.578;7.268;2022-10-31T06:58:42;12.98;;;10.60;;
15271;SDS011;7737;51.578;7.268;2022-10-31T07:01:08;13.38;;;11.10;;
15271;SDS011;7737;51.578;7.268;2022-10-31T07:03:35;12.45;;;10.02;;
15271;SDS011;7737;51.578;7.268;2022-10-31T07:06:01;13.68;;;11.10;;
15271;SDS011;7737;51.578;7.268;2022-10-31T07:08:28;16.65;;;11.80;;
15271;SDS011;7737;51.578;7.268;2022-10-31T07:10:55;18.05;;;11.45;;
15271;SDS011;7737;51.578;7.268;2022-10-31T07:13:23;14.90;;;11.07;;
15271;SDS011;7737;51.578;7.268;2022-10-31T07:15:52;16.70;;;12.38;;
15271;SDS011;7737;51.578;7.268;2022-10-31T07:18:19;18.50;;;12.50;;
15271;SDS011;7737;51.578;7.268;2022-10-31T07:20:47;19.50;;;14.02;;
15271;SDS011;7737;51.578;7.268;2022-10-31T07:23:13;31.33;;;17.50;;
15271;SDS011;7737;51.578;7.268;2022-10-31T07:25:40;25.63;;;16.35;;
15271;SDS011;7737;51.578;7.268;2022-10-31T07:28:07;22.88;;;15.55;;
15271;SDS011;7737;51.578;7.268;2022-10-31T07:30:34;19.88;;;13.45;;
15271;SDS011;7737;51.578;7.268;2022-10-31T07:33:02;20.08;;;14.73;;
15271;SDS011;7737;51.578;7.268;2022-10-31T07:35:29;21.15;;;14.43;;
15271;SDS011;7737;51.578;7.268;2022-10-31T07:37:57;20.65;;;15.90;;
15271;SDS011;7737;51.578;7.268;2022-10-31T07:40:24;19.85;;;15.45;;
15271;SDS011;7737;51.578;7.268;2022-10-31T07:42:51;18.35;;;13.75;;
15271;SDS011;7737;51.578;7.268;2022-10-31T07:45:19;18.83;;;13.65;;
15271;SDS011;7737;51.578;7.268;2022-10-31T07:47:47;18.80;;;13.38;;
15271;SDS011;7737;51.578;7.268;2022-10-31T07:50:17;19.50;;;13.88;;
15271;SDS011;7737;51.578;7.268;2022-10-31T07:52:45;19.60;;;13.38;;
15271;SDS011;7737;51.578;7.268;2022-10-31T07:55:12;20.27;;;13.25;;
15271;SDS011;7737;51.578;7.268;2022-10-31T07:57:40;18.83;;;13.88;;
15271;SDS011;7737;51.578;7.268;2022-10-31T08:00:07;17.25;;;13.38;;
15271;SDS011;7737;51.578;7.268;2022-10-31T08:02:36;21.55;;;13.95;;
15271;SDS011;7737;51.578;7.268;2022-10-31T08:05:02;16.60;;;12.95;;
15271;SDS011;7737;51.578;7.268;2022-10-31T08:07:35;17.30;;;14.65;;
15271;SDS011;7737;51.578;7.268;2022-10-31T08:10:02;23.17;;;14.15;;
15271;SDS011;7737;51.578;7.268;2022-10-31T08:12:29;23.42;;;15.40;;
15271;SDS011;7737;51.578;7.268;2022-10-31T08:14:55;24.88;;;14.63;;
15271;SDS011;7737;51.578;7.268;2022-10-31T08:17:22;21.58;;;14.73;;
15271;SDS011;7737;51.578;7.268;2022-10-31T08:19:48;22.48;;;16.42;;
15271;SDS011;7737;51.578;7.268;2022-10-31T08:22:15;27.08;;;18.42;;
15271;SDS011;7737;51.578;7.268;2022-10-31T08:24:43;22.30;;;18.20;;
15271;SDS011;7737;51.578;7.268;2022-10-31T08:27:09;22.40;;;17.73;;
15271;SDS011;7737;51.578;7.268;2022-10-31T08:29:36;25.63;;;18.23;;
15271;SDS011;7737;51.578;7.268;2022-10-31T08:32:03;20.60;;;17.05;;
15271;SDS011;7737;51.578;7.268;2022-10-31T08:34:30;21.75;;;17.67;;
15271;SDS011;7737;51.578;7.268;2022-10-31T08:36:56;25.92;;;19.85;;
15271;SDS011;7737;51.578;7.268;2022-10-31T08:39:23;26.70;;;18.70;;
15271;SDS011;7737;51.578;7.268;2022-10-31T08:41:51;24.40;;;19.33;;
15271;SDS011;7737;51.578;7.268;2022-10-31T08:44:18;25.33;;;18.48;;
15271;SDS011;7737;51.578;7.268;2022-10-31T08:46:44;22.13;;;17.95;;
15271;SDS011;7737;51.578;7.268;2022-10-31T08:49:11;25.98;;;18.15;;
15271;SDS011;7737;51.578;7.268;2022-10-31T08:51:37;26.02;;;17.88;;
15271;SDS011;7737;51.578;7.268;2022-10-31T08:54:04;23.23;;;18.15;;
15271;SDS011;7737;51.578;7.268;2022-10-31T08:56:31;22.08;;;17.80;;
15271;SDS011;7737;51.578;7.268;2022-10-31T08:58:59;22.77;;;18.02;;
15271;SDS011;7737;51.578;7.268;2022-10-31T09:01:26;26.42;;;18.13;;
15271;SDS011;7737;51.578;7.268;2022-10-31T09:03:52;24.10;;;18.23;;
15271;SDS011;7737;51.578;7.268;2022-10-31T09:06:19;21.58;;;18.10;;
15271;SDS011;7737;51.578;7.268;2022-10-31T09:08:45;24.50;;;18.20;;
15271;SDS011;7737;51.578;7.268;2022-10-31T09:11:12;26.17;;;18.73;;
15271;SDS011;7737;51.578;7.268;2022-10-31T09:13:38;27.63;;;19.10;;
15271;SDS011;7737;51.578;7.268;2022-10-31T09:16:07;27.08;;;19.25;;
15271;SDS011;7737;51.578;7.268;2022-10-31T09:18:33;27.38;;;18.23;;
15271;SDS011;7737;51.578;7.268;2022-10-31T09:21:00;27.15;;;18.25;;
15271;SDS011;7737;51.578;7.268;2022-10-31T09:23:27;21.90;;;17.17;;
15271;SDS011;7737;51.578;7.268;2022-10-31T09:25:54;24.35;;;17.75;;
15271;SDS011;7737;51.578;7.268;2022-10-31T09:28:21;23.90;;;17.48;;
15271;SDS011;7737;51.578;7.268;2022-10-31T09:30:50;24.35;;;15.88;;
15271;SDS011;7737;51.578;7.268;2022-10-31T09:33:19;24.55;;;17.23;;
15271;SDS011;7737;51.578;7.268;2022-10-31T09:35:46;24.05;;;16.25;;
15271;SDS011;7737;51.578;7.268;2022-10-31T09:38:13;21.52;;;15.75;;
15271;SDS011;7737;51.578;7.268;2022-10-31T09:40:41;21.55;;;16.67;;
15271;SDS011;7737;51.578;7.268;2022-10-31T09:43:14;26.02;;;16.00;;
15271;SDS011;7737;51.578;7.268;2022-10-31T09:45:51;24.63;;;15.77;;
15271;SDS011;7737;51.578;7.268;2022-10-31T09:48:31;25.45;;;15.82;;
15271;SDS011;7737;51.578;7.268;2022-10-31T09:51:08;24.50;;;15.93;;
15271;SDS011;7737;51.578;7.268;2022-10-31T09:53:38;23.60;;;15.23;;
15271;SDS011;7737;51.578;7.268;2022-10-31T09:56:08;26.67;;;16.63;;
15271;SDS011;7737;51.578;7.268;2022-10-31T09:58:40;25.17;;;16.60;;
15271;SDS011;7737;51.578;7.268;2022-10-31T10:01:16;25.38;;;16.33;;
15271;SDS011;7737;51.578;7.268;2022-10-31T10:03:53;27.77;;;18.50;;
15271;SDS011;7737;51.578;7.268;2022-10-31T10:06:24;30.67;;;19.42;;
15271;SDS011;7737;51.578;7.268;2022-10-31T10:08:54;27.45;;;18.77;;
15271;SDS011;7737;51.578;7.268;2022-10-31T10:11:27;30.00;;;18.80;;
15271;SDS011;7737;51.578;7.268;2022-10-31T10:14:16;29.58;;;18.58;;
15271;SDS011;7737;51.578;7.268;2022-10-31T10:19:55;29.73;;;18.92;;
15271;SDS011;7737;51.578;7.268;2022-10-31T10:22:36;27.52;;;18.92;;
15271;SDS011;7737;51.578;7.268;2022-10-31T10:25:12;29.70;;;19.75;;
15271;SDS011;7737;51.578;7.268;2022-10-31T10:27:46;30.27;;;19.73;;
15271;SDS011;7737;51.578;7.268;2022-10-31T10:30:17;29.15;;;19.88;;
15271;SDS011;7737;51.578;7.268;2022-10-31T10:32:46;30.17;;;19.13;;
15271;SDS011;7737;51.578;7.268;2022-10-31T10:35:20;29.98;;;19.17;;
15271;SDS011;7737;51.578;7.268;2022-10-31T10:37:51;31.00;;;19.13;;
15271;SDS011;7737;51.578;7.268;2022-10-31T10:40:23;25.23;;;18.77;;
15271;SDS011;7737;51.578;7.268;2022-10-31T10:42:55;25.88;;;18.02;;
15271;SDS011;7737;51.578;7.268;2022-10-31T10:45:46;31.42;;;19.13;;
15271;SDS011;7737;51.578;7.268;2022-10-31T10:48:38;26.50;;;17.77;;
15271;SDS011;7737;51.578;7.268;2022-10-31T10:51:14;27.40;;;17.95;;
15271;SDS011;7737;51.578;7.268;2022-10-31T10:53:48;30.33;;;18.23;;
15271;SDS011;7737;51.578;7.268;2022-10-31T10:56:35;29.50;;;16.80;;
15271;SDS011;7737;51.578;7.268;2022-10-31T10:59:08;25.45;;;17.95;;
15271;SDS011;7737;51.578;7.268;2022-10-31T11:01:38;27.30;;;17.77;;
15271;SDS011;7737;51.578;7.268;2022-10-31T11:04:08;27.55;;;17.77;;
15271;SDS011;7737;51.578;7.268;2022-10-31T11:06:57;31.55;;;18.25;;
15271;SDS011;7737;51.578;7.268;2022-10-31T11:09:28;26.15;;;16.95;;
15271;SDS011;7737;51.578;7.268;2022-10-31T11:11:55;27.05;;;17.63;;
15271;SDS011;7737;51.578;7.268;2022-10-31T11:14:22;27.73;;;17.73;;
15271;SDS011;7737;51.578;7.268;2022-10-31T11:16:51;27.00;;;18.25;;
15271;SDS011;7737;51.578;7.268;2022-10-31T11:19:22;28.17;;;17.98;;
15271;SDS011;7737;51.578;7.268;2022-10-31T11:21:51;26.33;;;17.27;;
15271;SDS011;7737;51.578;7.268;2022-10-31T11:24:20;26.40;;;17.88;;
15271;SDS011;7737;51.578;7.268;2022-10-31T11:26:48;30.02;;;17.67;;
15271;SDS011;7737;51.578;7.268;2022-10-31T11:29:17;27.92;;;17.00;;
15271;SDS011;7737;51.578;7.268;2022-10-31T11:31:47;24.80;;;16.95;;
15271;SDS011;7737;51.578;7.268;2022-10-31T11:34:21;26.00;;;17.85;;
15271;SDS011;7737;51.578;7.268;2022-10-31T11:36:54;25.17;;;16.83;;
15271;SDS011;7737;51.578;7.268;2022-10-31T11:39:25;21.98;;;16.30;;
15271;SDS011;7737;51.578;7.268;2022-10-31T11:41:52;25.48;;;17.00;;
15271;SDS011;7737;51.578;7.268;2022-10-31T11:44:21;25.70;;;17.08;;
15271;SDS011;7737;51.578;7.268;2022-10-31T11:46:50;29.58;;;17.02;;
15271;SDS011;7737;51.578;7.268;2022-10-31T11:49:19;24.80;;;16.17;;
15271;SDS011;7737;51.578;7.268;2022-10-31T11:51:52;27.70;;;16.50;;
15271;SDS011;7737;51.578;7.268;2022-10-31T11:54:23;25.33;;;16.98;;
15271;SDS011;7737;51.578;7.268;2022-10-31T11:56:54;25.02;;;15.00;;
15271;SDS011;7737;51.578;7.268;2022-10-31T11:59:22;23.30;;;16.08;;
15271;SDS011;7737;51.578;7.268;2022-10-31T12:01:52;23.58;;;15.07;;
15271;SDS011;7737;51.578;7.268;2022-10-31T12:04:23;28.13;;;16.45;;
15271;SDS011;7737;51.578;7.268;2022-10-31T12:06:57;30.90;;;16.30;;
15271;SDS011;7737;51.578;7.268;2022-10-31T12:09:26;26.15;;;16.98;;
15271;SDS011;7737;51.578;7.268;2022-10-31T12:14:58;23.73;;;15.63;;
15271;SDS011;7737;51.578;7.268;2022-10-31T12:17:36;26.77;;;15.77;;
15271;SDS011;7737;51.578;7.268;2022-10-31T12:20:12;23.60;;;15.10;;
15271;SDS011;7737;51.578;7.268;2022-10-31T12:22:51;25.65;;;15.93;;
15271;SDS011;7737;51.578;7.268;2022-10-31T12:25:30;23.42;;;15.02;;
15271;SDS011;7737;51.578;7.268;2022-10-31T12:28:06;21.73;;;14.95;;
15271;SDS011;7737;51.578;7.268;2022-10-31T12:31:01;25.02;;;14.68;;
15271;SDS011;7737;51.578;7.268;2022-10-31T12:33:44;24.52;;;15.43;;
15271;SDS011;7737;51.578;7.268;2022-10-31T12:36:21;24.73;;;15.60;;
15271;SDS011;7737;51.578;7.268;2022-10-31T12:39:06;26.40;;;15.93;;
15271;SDS011;7737;51.578;7.268;2022-10-31T12:41:52;22.63;;;15.60;;
15271;SDS011;7737;51.578;7.268;2022-10-31T12:44:30;25.95;;;16.30;;
15271;SDS011;7737;51.578;7.268;2022-10-31T12:47:12;23.58;;;15.07;;
15271;SDS011;7737;51.578;7.268;2022-10-31T12:50:02;25.92;;;15.60;;
15271;SDS011;7737;51.578;7.268;2022-10-31T12:52:45;22.35;;;14.85;;
15271;SDS011;7737;51.578;7.268;2022-10-31T12:55:35;22.17;;;15.02;;
15271;SDS011;7737;51.578;7.268;2022-10-31T12:58:09;27.08;;;14.85;;
15271;SDS011;7737;51.578;7.268;2022-10-31T13:00:46;25.17;;;15.07;;
15271;SDS011;7737;51.578;7.268;2022-10-31T13:03:24;25.27;;;14.45;;
15271;SDS011;7737;51.578;7.268;2022-10-31T13:05:53;24.33;;;15.02;;
15271;SDS011;7737;51.578;7.268;2022-10-31T13:08:25;20.20;;;14.05;;
15271;SDS011;7737;51.578;7.268;2022-10-31T13:11:00;18.58;;;13.25;;
15271;SDS011;7737;51.578;7.268;2022-10-31T13:13:35;22.38;;;14.50;;
15271;SDS011;7737;51.578;7.268;2022-10-31T13:16:07;20.98;;;13.85;;
15271;SDS011;7737;51.578;7.268;2022-10-31T13:18:39;20.65;;;13.48;;
15271;SDS011;7737;51.578;7.268;2022-10-31T13:21:11;21.80;;;12.90;;
15271;SDS011;7737;51.578;7.268;2022-10-31T13:23:44;17.98;;;12.95;;
15271;SDS011;7737;51.578;7.268;2022-10-31T13:26:14;19.08;;;12.95;;
15271;SDS011;7737;51.578;7.268;2022-10-31T13:28:49;17.48;;;12.10;;
15271;SDS011;7737;51.578;7.268;2022-10-31T13:31:22;19.50;;;12.02;;
15271;SDS011;7737;51.578;7.268;2022-10-31T13:33:49;21.38;;;12.43;;
15271;SDS011;7737;51.578;7.268;2022-10-31T13:36:21;20.20;;;12.02;;
15271;SDS011;7737;51.578;7.268;2022-10-31T13:38:56;17.92;;;11.98;;
15271;SDS011;7737;51.578;7.268;2022-10-31T13:41:32;23.05;;;12.38;;
15271;SDS011;7737;51.578;7.268;2022-10-31T13:44:11;19.50;;;11.73;;
15271;SDS011;7737;51.578;7.268;2022-10-31T13:46:41;21.20;;;12.88;;
15271;SDS011;7737;51.578;7.268;2022-10-31T13:49:36;19.88;;;11.82;;
15271;SDS011;7737;51.578;7.268;2022-10-31T13:52:14;22.45;;;13.07;;
15271;SDS011;7737;51.578;7.268;2022-10-31T13:54:42;19.67;;;12.15;;
15271;SDS011;7737;51.578;7.268;2022-10-31T13:57:18;19.08;;;12.40;;
15271;SDS011;7737;51.578;7.268;2022-10-31T13:59:50;18.23;;;12.18;;
15271;SDS011;7737;51.578;7.268;2022-10-31T14:02:21;22.70;;;13.27;;
15271;SDS011;7737;51.578;7.268;2022-10-31T14:04:53;23.27;;;13.00;;
15271;SDS011;7737;51.578;7.268;2022-10-31T14:07:23;23.17;;;13.32;;
15271;SDS011;7737;51.578;7.268;2022-10-31T14:09:53;18.90;;;12.88;;
15271;SDS011;7737;51.578;7.268;2022-10-31T14:12:24;23.25;;;13.50;;
15271;SDS011;7737;51.578;7.268;2022-10-31T14:14:57;19.38;;;13.13;;
15271;SDS011;7737;51.578;7.268;2022-10-31T14:17:27;25.83;;;14.10;;
15271;SDS011;7737;51.578;7.268;2022-10-31T14:23:09;22.05;;;14.13;;
15271;SDS011;7737;51.578;7.268;2022-10-31T14:25:37;24.15;;;14.18;;
15271;SDS011;7737;51.578;7.268;2022-10-31T14:28:18;22.40;;;14.07;;
15271;SDS011;7737;51.578;7.268;2022-10-31T14:30:52;24.27;;;14.57;;
15271;SDS011;7737;51.578;7.268;2022-10-31T14:33:20;24.63;;;14.25;;
15271;SDS011;7737;51.578;7.268;2022-10-31T14:35:51;26.02;;;15.00;;
15271;SDS011;7737;51.578;7.268;2022-10-31T14:38:29;21.58;;;14.73;;
15271;SDS011;7737;51.578;7.268;2022-10-31T14:41:15;22.30;;;15.18;;
15271;SDS011;7737;51.578;7.268;2022-10-31T14:44:03;22.40;;;14.10;;
15271;SDS011;7737;51.578;7.268;2022-10-31T14:46:46;24.50;;;14.70;;
15271;SDS011;7737;51.578;7.268;2022-10-31T14:49:34;26.10;;;14.95;;
15271;SDS011;7737;51.578;7.268;2022-10-31T14:52:13;24.05;;;14.57;;
15271;SDS011;7737;51.578;7.268;2022-10-31T14:54:43;22.35;;;14.48;;
15271;SDS011;7737;51.578;7.268;2022-10-31T14:57:19;25.48;;;14.30;;
15271;SDS011;7737;51.578;7.268;2022-10-31T14:59:49;25.58;;;14.98;;
15271;SDS011;7737;51.578;7.268;2022-10-31T15:02:20;23.83;;;15.18;;
15271;SDS011;7737;51.578;7.268;2022-10-31T15:04:50;24.92;;;14.70;;
15271;SDS011;7737;51.578;7.268;2022-10-31T15:07:19;23.88;;;13.85;;
15271;SDS011;7737;51.578;7.268;2022-10-31T15:09:54;23.15;;;14.95;;
15271;SDS011;7737;51.578;7.268;2022-10-31T15:12:23;23.60;;;14.70;;